Jutiapa, Guatemala
Current Conditions -  °F | °C
As of 11:50 PM on Wednesday 26 Nov 2014 (Local Time) from MSSS Reporting Station
Clear Clear  
Wind Chill: 66°   Ceiling: Unl
Heat Index: 66°   Visibility: 6mi
Dew Point: 59°   Wind: 16mph
Humidity: 78%   Direction: 330°NNW
Pressure: 30.03"   Gusts: NA
Location:  14.17°N, 89.5°W
Report Text: MSSS 270550Z 33014KT CAVOK 19/15 Q1017 A3003
Loading
Personal Weather Stations






























Interactive Weather Map New forecast layout! Learn more

10-Day Weather Forecast

Advertisements
Track Severe Weather on mobile